createdAt,value
2017-12-17T00:00:32.248Z,8.94
2017-12-17T00:02:58.543Z,8.98
2017-12-17T00:05:24.758Z,8.91
2017-12-17T00:07:50.992Z,8.90
2017-12-17T00:10:17.635Z,8.87
2017-12-17T00:12:43.828Z,8.91
2017-12-17T00:15:09.996Z,8.89
2017-12-17T00:17:36.218Z,8.89
2017-12-17T00:20:02.769Z,8.83
2017-12-17T00:22:28.954Z,8.79
2017-12-17T00:24:55.155Z,8.81
2017-12-17T00:27:21.451Z,8.83
2017-12-17T00:29:47.610Z,8.76
2017-12-17T00:32:13.825Z,8.77
2017-12-17T00:34:40.023Z,8.75
2017-12-17T00:37:06.203Z,8.72
2017-12-17T00:39:32.568Z,8.68
2017-12-17T00:41:59.009Z,8.71
2017-12-17T00:44:25.250Z,8.78
2017-12-17T00:46:51.667Z,8.76
2017-12-17T00:49:17.832Z,8.61
2017-12-17T00:51:44.127Z,8.54
2017-12-17T00:54:10.562Z,8.63
2017-12-17T00:56:36.744Z,8.58
2017-12-17T00:59:03.032Z,8.62
2017-12-17T01:01:29.445Z,8.61
2017-12-17T01:03:55.980Z,8.53
2017-12-17T01:06:22.536Z,8.57
2017-12-17T01:08:48.917Z,8.55
2017-12-17T01:11:15.089Z,8.55
2017-12-17T01:13:41.264Z,8.47
2017-12-17T01:16:07.617Z,8.41
2017-12-17T01:18:33.889Z,8.42
2017-12-17T01:21:00.111Z,8.41
2017-12-17T01:23:26.340Z,8.36
2017-12-17T01:25:52.568Z,8.40
2017-12-17T01:28:18.755Z,8.34
2017-12-17T01:30:44.973Z,8.28
2017-12-17T01:33:11.158Z,8.22
2017-12-17T01:35:37.332Z,8.28
2017-12-17T01:38:03.544Z,8.18
2017-12-17T01:40:29.711Z,8.24
2017-12-17T01:42:55.887Z,8.23
2017-12-17T01:45:22.093Z,8.27
2017-12-17T01:47:48.272Z,8.32
2017-12-17T01:50:14.439Z,8.28
2017-12-17T01:52:40.639Z,8.25
2017-12-17T01:55:06.818Z,8.14
2017-12-17T01:57:33.071Z,8.13
2017-12-17T01:59:59.301Z,8.15
2017-12-17T02:02:25.480Z,8.19
2017-12-17T02:04:51.649Z,8.26
2017-12-17T02:07:17.871Z,8.21
2017-12-17T02:09:44.037Z,8.05
2017-12-17T02:12:10.210Z,8.13
2017-12-17T02:14:36.437Z,8.13
2017-12-17T02:17:02.604Z,8.09
2017-12-17T02:19:28.962Z,8.11
2017-12-17T02:21:55.167Z,8.11
2017-12-17T02:24:21.331Z,8.16
2017-12-17T02:26:47.508Z,8.29
2017-12-17T02:29:13.719Z,8.13
2017-12-17T02:31:39.882Z,8.16
2017-12-17T02:34:06.058Z,8.20
2017-12-17T02:36:32.276Z,8.23
2017-12-17T02:38:58.563Z,8.14
2017-12-17T02:41:24.742Z,8.10
2017-12-17T02:43:50.942Z,8.10
2017-12-17T02:46:17.115Z,8.11
2017-12-17T02:48:43.285Z,8.10
2017-12-17T02:51:09.504Z,8.10
2017-12-17T02:53:35.714Z,8.04
2017-12-17T02:56:01.908Z,8.03
2017-12-17T02:58:28.133Z,8.11
2017-12-17T03:00:54.316Z,8.15
2017-12-17T03:03:20.495Z,8.20
2017-12-17T03:05:46.718Z,8.19
2017-12-17T03:08:12.894Z,8.22
2017-12-17T03:10:39.169Z,8.20
2017-12-17T03:13:05.390Z,8.16
2017-12-17T03:15:31.590Z,8.14
2017-12-17T03:17:57.759Z,8.20
2017-12-17T03:20:23.982Z,8.23
2017-12-17T03:22:50.160Z,8.19
2017-12-17T03:25:16.341Z,8.18
2017-12-17T03:27:42.566Z,8.15
2017-12-17T03:30:08.760Z,8.09
2017-12-17T03:32:34.944Z,8.05
2017-12-17T03:35:01.163Z,8.19
2017-12-17T03:37:27.327Z,8.15
2017-12-17T03:39:53.515Z,7.96
2017-12-17T03:42:19.718Z,7.82
2017-12-17T03:44:45.887Z,7.84
2017-12-17T03:47:12.062Z,7.74
2017-12-17T03:49:38.383Z,7.69
2017-12-17T03:52:04.565Z,7.62
2017-12-17T03:54:30.750Z,7.49
2017-12-17T03:56:57.093Z,7.49
2017-12-17T03:59:23.279Z,7.57
2017-12-17T04:01:49.452Z,7.72
2017-12-17T04:04:15.660Z,7.64
2017-12-17T04:06:41.846Z,7.59
2017-12-17T04:09:08.014Z,7.60
2017-12-17T04:11:34.250Z,7.62
2017-12-17T04:14:00.430Z,7.58
2017-12-17T04:16:26.584Z,7.51
2017-12-17T04:18:52.796Z,7.59
2017-12-17T04:21:19.169Z,7.60
2017-12-17T04:23:45.340Z,7.47
2017-12-17T04:26:11.560Z,7.48
2017-12-17T04:28:37.747Z,7.54
2017-12-17T04:31:03.920Z,7.59
2017-12-17T04:33:30.313Z,7.73
2017-12-17T04:35:56.479Z,7.70
2017-12-17T04:38:22.769Z,7.72
2017-12-17T04:40:48.979Z,7.73
2017-12-17T04:43:15.160Z,7.77
2017-12-17T04:45:41.346Z,7.79
2017-12-17T04:48:07.569Z,7.81
2017-12-17T04:50:33.740Z,7.81
2017-12-17T04:52:59.905Z,7.82
2017-12-17T04:55:26.159Z,7.77
2017-12-17T04:57:52.339Z,7.73
2017-12-17T05:00:18.590Z,7.74
2017-12-17T05:02:44.810Z,7.77
2017-12-17T05:05:10.991Z,7.77
2017-12-17T05:07:37.160Z,7.75
2017-12-17T05:10:03.494Z,7.73
2017-12-17T05:12:29.668Z,7.73
2017-12-17T05:14:55.845Z,7.73
2017-12-17T05:17:22.056Z,7.75
2017-12-17T05:19:48.255Z,7.78
2017-12-17T05:22:14.428Z,7.77
2017-12-17T05:24:40.631Z,7.73
2017-12-17T05:27:06.812Z,7.76
2017-12-17T05:29:33.000Z,7.68
2017-12-17T05:31:59.217Z,7.65
2017-12-17T05:34:25.406Z,7.56
2017-12-17T05:36:51.584Z,7.62
2017-12-17T05:39:17.805Z,7.69
2017-12-17T05:41:44.039Z,7.55
2017-12-17T05:44:10.184Z,7.50
2017-12-17T05:46:36.387Z,7.52
2017-12-17T05:49:02.570Z,7.48
2017-12-17T05:51:28.766Z,7.37
2017-12-17T05:53:54.967Z,7.62
2017-12-17T05:56:21.140Z,7.67
2017-12-17T05:58:47.294Z,7.69
2017-12-17T06:01:13.504Z,7.73
2017-12-17T06:03:39.739Z,7.68
2017-12-17T06:06:05.908Z,7.68
2017-12-17T06:08:32.118Z,7.66
2017-12-17T06:10:58.286Z,7.70
2017-12-17T06:13:24.455Z,7.72
2017-12-17T06:15:50.713Z,7.59
2017-12-17T06:18:16.899Z,7.60
2017-12-17T06:20:43.062Z,7.46
2017-12-17T06:23:09.282Z,7.38
2017-12-17T06:25:35.469Z,7.51
2017-12-17T06:28:01.632Z,7.49
2017-12-17T06:30:27.842Z,7.37
2017-12-17T06:32:54.016Z,7.42
2017-12-17T06:35:20.196Z,7.48
2017-12-17T06:37:46.397Z,7.84
2017-12-17T06:40:12.565Z,7.78
2017-12-17T06:42:38.749Z,7.73
2017-12-17T06:45:04.962Z,8.16
2017-12-17T06:47:31.126Z,8.00
2017-12-17T06:49:57.293Z,8.01
2017-12-17T06:52:23.509Z,7.86
2017-12-17T06:54:49.701Z,7.60
2017-12-17T06:57:15.876Z,7.63
2017-12-17T06:59:42.084Z,7.69
2017-12-17T07:02:08.248Z,7.58
2017-12-17T07:04:34.418Z,7.51
2017-12-17T07:07:00.628Z,7.45
2017-12-17T07:09:26.802Z,7.42
2017-12-17T07:11:53.090Z,7.43
2017-12-17T07:14:19.310Z,7.50
2017-12-17T07:16:45.489Z,7.70
2017-12-17T07:19:11.650Z,7.81
2017-12-17T07:21:37.862Z,7.49
2017-12-17T07:24:04.036Z,7.44
2017-12-17T07:26:30.220Z,7.27
2017-12-17T07:28:56.482Z,7.16
2017-12-17T07:31:22.656Z,7.04
2017-12-17T07:33:48.849Z,6.65
2017-12-17T07:36:15.071Z,6.79
2017-12-17T07:38:41.260Z,6.83
2017-12-17T07:41:07.458Z,6.91
2017-12-17T07:43:33.689Z,6.86
2017-12-17T07:45:59.891Z,6.57
2017-12-17T07:48:26.080Z,6.58
2017-12-17T07:50:52.288Z,6.59
2017-12-17T07:53:18.486Z,6.50
2017-12-17T07:55:44.677Z,6.46
2017-12-17T07:58:10.887Z,6.36
2017-12-17T08:00:37.082Z,6.31
2017-12-17T08:03:03.274Z,6.45
2017-12-17T08:05:29.491Z,6.45
2017-12-17T08:07:55.683Z,6.47
2017-12-17T08:10:21.876Z,6.44
2017-12-17T08:12:48.084Z,6.52
2017-12-17T08:15:14.252Z,6.65
2017-12-17T08:17:40.438Z,6.69
2017-12-17T08:20:06.656Z,6.61
2017-12-17T08:22:32.851Z,6.48
2017-12-17T08:24:59.042Z,6.49
2017-12-17T08:27:25.262Z,6.43
2017-12-17T08:29:51.444Z,6.38
2017-12-17T08:32:17.704Z,6.35
2017-12-17T08:34:43.934Z,6.28
2017-12-17T08:37:10.115Z,6.38
2017-12-17T08:39:36.291Z,6.44
2017-12-17T08:42:02.516Z,6.49
2017-12-17T08:44:28.720Z,6.57
2017-12-17T08:46:54.915Z,6.56
2017-12-17T08:49:21.143Z,6.59
2017-12-17T08:51:47.326Z,6.60
2017-12-17T08:54:13.717Z,6.51
2017-12-17T08:56:39.961Z,6.53
2017-12-17T08:59:06.150Z,6.70
2017-12-17T09:01:32.336Z,6.74
2017-12-17T09:03:58.554Z,6.62
2017-12-17T09:06:24.849Z,6.55
2017-12-17T09:08:51.176Z,6.52
2017-12-17T09:11:17.614Z,6.54
2017-12-17T09:13:43.827Z,6.59
2017-12-17T09:16:10.075Z,6.66
2017-12-17T09:18:36.503Z,6.64
2017-12-17T09:21:02.725Z,6.64
2017-12-17T09:23:28.931Z,6.75
2017-12-17T09:25:55.196Z,6.67
2017-12-17T09:28:21.396Z,6.80
2017-12-17T09:30:47.629Z,6.82
2017-12-17T09:33:14.062Z,6.84
2017-12-17T09:35:40.287Z,6.82
2017-12-17T09:38:06.652Z,6.86
2017-12-17T09:40:32.890Z,6.78
2017-12-17T09:42:59.311Z,6.89
2017-12-17T09:45:25.755Z,6.87
2017-12-17T09:47:52.164Z,6.94
2017-12-17T09:50:18.357Z,6.90
2017-12-17T09:52:44.610Z,6.90
2017-12-17T09:55:10.850Z,6.92
2017-12-17T09:57:37.068Z,6.77
2017-12-17T10:00:03.260Z,6.83
2017-12-17T10:02:29.491Z,6.90
2017-12-17T10:04:55.867Z,6.97
2017-12-17T10:07:22.100Z,6.96
2017-12-17T10:09:48.280Z,7.02
2017-12-17T10:12:14.526Z,7.05
2017-12-17T10:14:40.704Z,7.04
2017-12-17T10:17:07.217Z,7.00
2017-12-17T10:19:33.504Z,7.08
2017-12-17T10:21:59.687Z,7.21
2017-12-17T10:24:25.910Z,7.19
2017-12-17T10:26:52.120Z,7.00
2017-12-17T10:29:18.789Z,7.06
2017-12-17T10:31:44.988Z,7.12
2017-12-17T10:34:11.430Z,7.20
2017-12-17T10:36:37.620Z,7.19
2017-12-17T10:39:03.800Z,7.19
2017-12-17T10:41:30.103Z,7.20
2017-12-17T10:43:56.366Z,7.17
2017-12-17T10:46:22.721Z,7.19
2017-12-17T10:48:48.919Z,7.23
2017-12-17T10:51:15.115Z,7.25
2017-12-17T10:53:41.313Z,7.35
2017-12-17T10:56:07.543Z,7.46
2017-12-17T10:58:33.723Z,7.59
2017-12-17T11:00:59.905Z,7.57
2017-12-17T11:03:26.118Z,7.49
2017-12-17T11:05:52.416Z,7.44
2017-12-17T11:08:18.622Z,7.33
2017-12-17T11:10:45.058Z,7.22
2017-12-17T11:13:11.226Z,7.29
2017-12-17T11:15:37.430Z,7.18
2017-12-17T11:18:03.663Z,7.06
2017-12-17T11:20:29.986Z,7.04
2017-12-17T11:22:56.170Z,6.96
2017-12-17T11:25:22.373Z,6.94
2017-12-17T11:27:48.571Z,6.82
2017-12-17T11:30:14.796Z,6.88
2017-12-17T11:32:40.999Z,6.87
2017-12-17T11:35:07.193Z,6.90
2017-12-17T11:37:33.385Z,6.99
2017-12-17T11:39:59.593Z,7.01
2017-12-17T11:42:25.786Z,7.01
2017-12-17T11:44:52.004Z,7.08
2017-12-17T11:47:18.176Z,7.06
2017-12-17T11:49:44.408Z,7.07
2017-12-17T11:52:10.588Z,7.14
2017-12-17T11:54:36.766Z,7.07
2017-12-17T11:57:02.949Z,7.06
2017-12-17T11:59:29.173Z,7.05
2017-12-17T12:01:55.360Z,7.07
2017-12-17T12:04:21.543Z,7.03
2017-12-17T12:06:47.772Z,7.03
2017-12-17T12:09:13.953Z,7.16
2017-12-17T12:11:40.142Z,7.28
2017-12-17T12:14:06.340Z,7.42
2017-12-17T12:16:32.609Z,7.44
2017-12-17T12:18:58.793Z,7.44
2017-12-17T12:21:25.023Z,7.46
2017-12-17T12:23:51.217Z,7.42
2017-12-17T12:26:17.580Z,7.46
2017-12-17T12:28:43.794Z,7.42
2017-12-17T12:31:10.002Z,7.40
2017-12-17T12:33:36.185Z,7.48
2017-12-17T12:36:02.401Z,7.41
2017-12-17T12:38:28.567Z,7.37
2017-12-17T12:40:55.026Z,7.40
2017-12-17T12:43:21.249Z,7.42
2017-12-17T12:45:47.429Z,7.40
2017-12-17T12:48:13.611Z,7.38
2017-12-17T12:50:39.851Z,7.38
2017-12-17T12:53:06.034Z,7.28
2017-12-17T12:55:32.223Z,7.18
2017-12-17T12:57:58.447Z,7.12
2017-12-17T13:00:24.654Z,7.13
2017-12-17T13:02:50.860Z,7.15
2017-12-17T13:05:17.121Z,7.22
2017-12-17T13:07:43.516Z,7.17
2017-12-17T13:10:09.765Z,7.00
2017-12-17T13:12:36.036Z,6.97
2017-12-17T13:15:02.208Z,6.94
2017-12-17T13:17:28.390Z,6.83
2017-12-17T13:19:54.605Z,6.79
2017-12-17T13:22:20.792Z,6.74
2017-12-17T13:24:46.978Z,6.64
2017-12-17T13:27:13.213Z,6.63
2017-12-17T13:29:39.422Z,6.62
2017-12-17T13:32:05.724Z,6.52
2017-12-17T13:34:32.007Z,6.45
2017-12-17T13:36:58.348Z,6.43
2017-12-17T13:39:24.611Z,6.24
2017-12-17T13:41:50.821Z,6.26
2017-12-17T13:44:17.005Z,6.13
2017-12-17T13:46:43.216Z,6.04
2017-12-17T13:49:09.486Z,6.03
2017-12-17T13:51:35.684Z,6.06
2017-12-17T13:54:01.881Z,6.09
2017-12-17T13:56:28.171Z,5.98
2017-12-17T13:58:54.369Z,5.91
2017-12-17T14:01:20.610Z,5.84
2017-12-17T14:03:46.841Z,5.73
2017-12-17T14:06:13.019Z,5.66
2017-12-17T14:08:39.230Z,5.58
2017-12-17T14:11:05.497Z,5.56
2017-12-17T14:13:31.719Z,5.46
2017-12-17T14:15:58.008Z,5.29
2017-12-17T14:18:24.269Z,5.26
2017-12-17T14:20:50.687Z,5.12
2017-12-17T14:23:16.882Z,5.10
2017-12-17T14:25:43.126Z,5.05
2017-12-17T14:28:09.335Z,5.05
2017-12-17T14:30:35.613Z,5.08
2017-12-17T14:33:02.045Z,5.04
2017-12-17T14:35:28.260Z,5.03
2017-12-17T14:37:54.443Z,4.96
2017-12-17T14:40:20.661Z,4.99
2017-12-17T14:42:46.865Z,4.99
2017-12-17T14:45:13.181Z,5.03
2017-12-17T14:47:39.423Z,5.03
2017-12-17T14:50:05.627Z,4.88
2017-12-17T14:52:31.862Z,4.81
2017-12-17T14:54:58.086Z,4.77
2017-12-17T14:57:24.275Z,4.78
2017-12-17T14:59:50.465Z,4.76
2017-12-17T15:02:16.691Z,4.64
2017-12-17T15:04:42.987Z,4.54
2017-12-17T15:07:09.184Z,4.47
2017-12-17T15:09:35.402Z,4.49
2017-12-17T15:12:01.568Z,4.45
2017-12-17T15:14:27.722Z,4.33
2017-12-17T15:16:53.929Z,4.22
2017-12-17T15:19:20.187Z,4.20
2017-12-17T15:21:46.388Z,4.18
2017-12-17T15:24:12.623Z,4.16
2017-12-17T15:26:38.786Z,4.05
2017-12-17T15:29:04.995Z,3.91
2017-12-17T15:31:31.171Z,3.80
2017-12-17T15:33:57.373Z,3.83
2017-12-17T15:36:23.586Z,3.80
2017-12-17T15:38:49.758Z,3.70
2017-12-17T15:41:15.932Z,3.69
2017-12-17T15:43:42.116Z,3.70
2017-12-17T15:46:08.288Z,3.75
2017-12-17T15:48:34.494Z,3.80
2017-12-17T15:51:00.722Z,3.72
2017-12-17T15:53:26.887Z,3.58
2017-12-17T15:55:53.071Z,3.52
2017-12-17T15:58:19.395Z,3.54
2017-12-17T16:00:45.569Z,3.53
2017-12-17T16:03:11.770Z,3.61
2017-12-17T16:05:38.002Z,3.65
2017-12-17T16:08:04.185Z,3.69
2017-12-17T16:10:30.378Z,3.64
2017-12-17T16:12:56.605Z,3.70
2017-12-17T16:15:22.788Z,3.68
2017-12-17T16:17:48.965Z,3.76
2017-12-17T16:20:15.238Z,3.71
2017-12-17T16:22:41.430Z,3.64
2017-12-17T16:25:07.593Z,3.65
2017-12-17T16:27:33.808Z,3.61
2017-12-17T16:30:00.197Z,3.63
2017-12-17T16:32:26.382Z,3.68
2017-12-17T16:34:52.594Z,3.70
2017-12-17T16:37:18.788Z,3.64
2017-12-17T16:39:44.951Z,3.57
2017-12-17T16:42:11.290Z,3.58
2017-12-17T16:44:37.467Z,3.55
2017-12-17T16:47:03.671Z,3.56
2017-12-17T16:49:30.016Z,3.57
2017-12-17T16:51:56.213Z,3.59
2017-12-17T16:54:22.416Z,3.53
2017-12-17T16:56:48.681Z,3.55
2017-12-17T16:59:14.866Z,3.50
2017-12-17T17:01:41.050Z,3.45
2017-12-17T17:04:07.270Z,3.37
2017-12-17T17:06:33.691Z,3.35
2017-12-17T17:08:59.889Z,3.34
2017-12-17T17:11:26.070Z,3.34
2017-12-17T17:13:52.293Z,3.34
2017-12-17T17:16:18.456Z,3.38
2017-12-17T17:18:44.637Z,3.36
2017-12-17T17:21:10.864Z,3.28
2017-12-17T17:23:37.033Z,3.28
2017-12-17T17:26:03.227Z,3.24
2017-12-17T17:28:29.449Z,3.07
2017-12-17T17:30:55.621Z,3.07
2017-12-17T17:33:21.944Z,3.10
2017-12-17T17:35:48.168Z,3.09
2017-12-17T17:38:14.423Z,3.07
2017-12-17T17:40:40.612Z,3.02
2017-12-17T17:43:06.930Z,3.06
2017-12-17T17:45:33.073Z,3.10
2017-12-17T17:47:59.283Z,3.08
2017-12-17T17:50:25.497Z,3.09
2017-12-17T17:52:51.681Z,3.08
2017-12-17T17:55:17.862Z,3.07
2017-12-17T17:57:44.080Z,3.06
2017-12-17T18:00:10.246Z,2.96
2017-12-17T18:02:36.426Z,2.96
2017-12-17T18:05:02.636Z,2.89
2017-12-17T18:07:28.817Z,2.94
2017-12-17T18:09:54.997Z,2.89
2017-12-17T18:12:21.241Z,2.93
2017-12-17T18:14:47.422Z,2.91
2017-12-17T18:17:13.634Z,2.92
2017-12-17T18:19:39.845Z,2.90
2017-12-17T18:22:06.013Z,2.84
2017-12-17T18:24:32.215Z,2.86
2017-12-17T18:26:58.411Z,2.83
2017-12-17T18:29:24.597Z,2.84
2017-12-17T18:31:50.774Z,2.85
2017-12-17T18:34:17.009Z,2.81
2017-12-17T18:36:43.184Z,2.84
2017-12-17T18:39:09.402Z,2.75
2017-12-17T18:41:35.628Z,2.84
2017-12-17T18:44:01.815Z,2.84
2017-12-17T18:46:28.038Z,2.82
2017-12-17T18:48:54.258Z,2.77
2017-12-17T18:51:20.429Z,2.72
2017-12-17T18:53:46.611Z,2.71
2017-12-17T18:56:12.830Z,2.76
2017-12-17T18:58:39.005Z,2.74
2017-12-17T19:01:05.173Z,2.81
2017-12-17T19:03:31.397Z,2.88
2017-12-17T19:05:57.603Z,2.85
2017-12-17T19:08:23.763Z,2.89
2017-12-17T19:10:50.022Z,2.89
2017-12-17T19:13:16.186Z,2.93
2017-12-17T19:15:42.351Z,2.99
2017-12-17T19:18:08.558Z,2.98
2017-12-17T19:20:34.822Z,2.99
2017-12-17T19:23:00.999Z,3.04
2017-12-17T19:25:27.320Z,3.04
2017-12-17T19:27:53.558Z,3.07
2017-12-17T19:30:19.739Z,3.08
2017-12-17T19:32:45.930Z,3.13
2017-12-17T19:35:12.097Z,3.20
2017-12-17T19:37:38.338Z,3.13
2017-12-17T19:40:04.548Z,3.24
2017-12-17T19:42:30.841Z,3.26
2017-12-17T19:44:57.020Z,3.24
2017-12-17T19:47:23.217Z,3.22
2017-12-17T19:49:49.386Z,3.25
2017-12-17T19:52:15.613Z,3.19
2017-12-17T19:54:41.968Z,3.13
2017-12-17T19:57:08.163Z,3.13
2017-12-17T19:59:34.433Z,3.16
2017-12-17T20:02:00.742Z,3.09
2017-12-17T20:04:26.914Z,3.07
2017-12-17T20:06:53.081Z,3.04
2017-12-17T20:09:19.292Z,2.95
2017-12-17T20:11:45.498Z,2.97
2017-12-17T20:14:11.825Z,3.03
2017-12-17T20:16:38.035Z,2.84
2017-12-17T20:19:04.234Z,3.03
2017-12-17T20:21:30.414Z,3.12
2017-12-17T20:23:56.640Z,3.18
2017-12-17T20:26:22.822Z,3.24
2017-12-17T20:28:49.004Z,3.23
2017-12-17T20:31:15.390Z,3.23
2017-12-17T20:33:41.569Z,3.22
2017-12-17T20:36:07.785Z,3.23
2017-12-17T20:38:34.173Z,3.31
2017-12-17T20:41:00.525Z,3.34
2017-12-17T20:43:26.703Z,3.38
2017-12-17T20:45:53.080Z,3.38
2017-12-17T20:48:19.399Z,3.36
2017-12-17T20:50:45.577Z,3.27
2017-12-17T20:53:11.781Z,3.20
2017-12-17T20:55:38.000Z,3.18
2017-12-17T20:58:04.207Z,3.09
2017-12-17T21:00:30.446Z,3.00
2017-12-17T21:02:56.769Z,2.93
2017-12-17T21:05:22.939Z,2.92
2017-12-17T21:07:49.141Z,3.00
2017-12-17T21:10:15.306Z,3.06
2017-12-17T21:12:41.474Z,3.13
2017-12-17T21:15:07.738Z,3.18
2017-12-17T21:17:34.133Z,3.20
2017-12-17T21:20:00.362Z,3.23
2017-12-17T21:22:26.595Z,3.22
2017-12-17T21:24:52.778Z,3.24
2017-12-17T21:27:18.990Z,3.24
2017-12-17T21:29:45.240Z,3.21
2017-12-17T21:32:11.425Z,3.27
2017-12-17T21:34:37.604Z,3.24
2017-12-17T21:37:03.851Z,3.21
2017-12-17T21:39:30.040Z,3.20
2017-12-17T21:41:56.246Z,3.23
2017-12-17T21:44:22.461Z,3.22
2017-12-17T21:46:48.675Z,3.22
2017-12-17T21:49:15.129Z,3.26
2017-12-17T21:51:41.340Z,3.31
2017-12-17T21:54:07.521Z,3.32
2017-12-17T21:56:33.756Z,3.24
2017-12-17T21:59:00.020Z,3.26
2017-12-17T22:01:26.192Z,3.27
2017-12-17T22:03:52.667Z,3.32
2017-12-17T22:06:18.894Z,3.33
2017-12-17T22:08:45.079Z,3.37
2017-12-17T22:11:11.393Z,3.44
2017-12-17T22:13:37.604Z,3.46
2017-12-17T22:16:03.900Z,3.47
2017-12-17T22:18:30.078Z,3.47
2017-12-17T22:20:56.510Z,3.44
2017-12-17T22:23:22.689Z,3.39
2017-12-17T22:25:48.882Z,3.35
2017-12-17T22:28:15.089Z,3.36
2017-12-17T22:30:41.418Z,3.33
2017-12-17T22:33:07.627Z,3.39
2017-12-17T22:35:33.868Z,3.32
2017-12-17T22:38:00.063Z,3.37
2017-12-17T22:40:26.267Z,3.48
2017-12-17T22:42:52.515Z,3.47
2017-12-17T22:45:18.701Z,3.49
2017-12-17T22:47:45.027Z,3.51
2017-12-17T22:50:11.227Z,3.49
2017-12-17T22:52:37.399Z,3.45
2017-12-17T22:55:03.600Z,3.37
2017-12-17T22:57:30.299Z,3.36
2017-12-17T22:59:56.545Z,3.32
2017-12-17T23:02:22.817Z,3.25
2017-12-17T23:04:49.235Z,3.30
2017-12-17T23:07:15.468Z,3.27
2017-12-17T23:09:41.697Z,3.22
2017-12-17T23:12:08.130Z,3.25
2017-12-17T23:14:34.339Z,3.24
2017-12-17T23:17:00.554Z,3.25
2017-12-17T23:19:26.812Z,3.25
2017-12-17T23:21:53.044Z,3.28
2017-12-17T23:24:19.225Z,3.39
2017-12-17T23:26:45.502Z,3.45
2017-12-17T23:29:11.686Z,3.45
2017-12-17T23:31:37.869Z,3.46
2017-12-17T23:34:04.125Z,3.44
2017-12-17T23:36:30.895Z,3.48
2017-12-17T23:38:57.414Z,3.38
2017-12-17T23:41:23.638Z,3.43
2017-12-17T23:43:50.013Z,3.46
2017-12-17T23:46:16.566Z,3.50
2017-12-17T23:48:42.989Z,3.53
2017-12-17T23:51:09.208Z,3.60
2017-12-17T23:53:35.426Z,3.65
2017-12-17T23:56:01.677Z,3.68
2017-12-17T23:58:27.879Z,3.73
